Williton, United Kingdom
Current Conditions -  °F | °C
As of 9:20 PM on Saturday 20 Dec 2014 (Local Time) from EGFF Reporting Station
Broken Clouds Broken Clouds  
Wind Chill: 39°   Ceiling: 1700
Heat Index: 46°   Visibility: 6mi
Dew Point: 45°   Wind: 17mph
Humidity: 93%   Direction: 290°WNW
Pressure: 30.45"   Gusts: NA
Location:  51.16°N, 3.32°W
Report Text: EGFF 202120Z AUTO 29015KT 9999 BKN017 08/07 Q1031
Loading
Personal Weather Stations






























Interactive Weather Map New forecast layout! Learn more

10-Day Weather Forecast

Advertisements
Track Severe Weather on mobile